sensor_id;sensor_type;location;lat;lon;timestamp;P1;durP1;ratioP1;P2;durP2;ratioP2
60588;SDS011;46421;48.610;9.334;2024-03-29T00:01:34;0.77;;;0.30;;
60588;SDS011;46421;48.610;9.334;2024-03-29T00:03:59;0.73;;;0.40;;
60588;SDS011;46421;48.610;9.334;2024-03-29T00:06:24;2.30;;;0.70;;
60588;SDS011;46421;48.610;9.334;2024-03-29T00:08:50;0.73;;;0.30;;
60588;SDS011;46421;48.610;9.334;2024-03-29T00:11:15;2.17;;;0.47;;
60588;SDS011;46421;48.610;9.334;2024-03-29T00:13:40;0.75;;;0.40;;
60588;SDS011;46421;48.610;9.334;2024-03-29T00:16:06;0.10;;;0.10;;
60588;SDS011;46421;48.610;9.334;2024-03-29T00:18:31;0.70;;;0.32;;
60588;SDS011;46421;48.610;9.334;2024-03-29T00:20:57;0.93;;;0.30;;
60588;SDS011;46421;48.610;9.334;2024-03-29T00:23:22;0.95;;;0.40;;
60588;SDS011;46421;48.610;9.334;2024-03-29T00:25:48;0.57;;;0.20;;
60588;SDS011;46421;48.610;9.334;2024-03-29T00:28:13;1.90;;;0.27;;
60588;SDS011;46421;48.610;9.334;2024-03-29T00:30:38;0.45;;;0.20;;
60588;SDS011;46421;48.610;9.334;2024-03-29T00:33:04;0.75;;;0.40;;
60588;SDS011;46421;48.610;9.334;2024-03-29T00:35:29;0.57;;;0.45;;
60588;SDS011;46421;48.610;9.334;2024-03-29T00:37:55;2.10;;;0.35;;
60588;SDS011;46421;48.610;9.334;2024-03-29T00:40:21;1.45;;;0.30;;
60588;SDS011;46421;48.610;9.334;2024-03-29T00:42:46;0.95;;;0.30;;
60588;SDS011;46421;48.610;9.334;2024-03-29T00:45:12;1.35;;;0.35;;
60588;SDS011;46421;48.610;9.334;2024-03-29T00:47:37;0.47;;;0.28;;
60588;SDS011;46421;48.610;9.334;2024-03-29T00:50:02;2.03;;;0.30;;
60588;SDS011;46421;48.610;9.334;2024-03-29T00:52:28;0.52;;;0.20;;
60588;SDS011;46421;48.610;9.334;2024-03-29T00:54:53;1.48;;;0.30;;
60588;SDS011;46421;48.610;9.334;2024-03-29T00:57:19;0.57;;;0.30;;
60588;SDS011;46421;48.610;9.334;2024-03-29T00:59:44;0.20;;;0.20;;
60588;SDS011;46421;48.610;9.334;2024-03-29T01:02:09;0.47;;;0.15;;
60588;SDS011;46421;48.610;9.334;2024-03-29T01:04:35;0.75;;;0.30;;
60588;SDS011;46421;48.610;9.334;2024-03-29T01:07:01;2.67;;;0.40;;
60588;SDS011;46421;48.610;9.334;2024-03-29T01:09:26;1.27;;;0.40;;
60588;SDS011;46421;48.610;9.334;2024-03-29T01:11:51;0.60;;;0.30;;
60588;SDS011;46421;48.610;9.334;2024-03-29T01:14:17;0.82;;;0.40;;
60588;SDS011;46421;48.610;9.334;2024-03-29T01:16:42;0.40;;;0.20;;
60588;SDS011;46421;48.610;9.334;2024-03-29T01:19:07;2.13;;;0.50;;
60588;SDS011;46421;48.610;9.334;2024-03-29T01:21:35;0.40;;;0.30;;
60588;SDS011;46421;48.610;9.334;2024-03-29T01:24:00;1.33;;;0.38;;
60588;SDS011;46421;48.610;9.334;2024-03-29T01:26:26;0.73;;;0.17;;
60588;SDS011;46421;48.610;9.334;2024-03-29T01:28:51;1.10;;;0.30;;
60588;SDS011;46421;48.610;9.334;2024-03-29T01:31:16;1.20;;;0.30;;
60588;SDS011;46421;48.610;9.334;2024-03-29T01:33:42;0.60;;;0.23;;
60588;SDS011;46421;48.610;9.334;2024-03-29T01:36:07;0.50;;;0.30;;
60588;SDS011;46421;48.610;9.334;2024-03-29T01:38:33;1.58;;;0.17;;
60588;SDS011;46421;48.610;9.334;2024-03-29T01:40:58;0.63;;;0.32;;
60588;SDS011;46421;48.610;9.334;2024-03-29T01:43:24;1.23;;;0.50;;
60588;SDS011;46421;48.610;9.334;2024-03-29T01:45:51;1.45;;;0.40;;
60588;SDS011;46421;48.610;9.334;2024-03-29T01:48:24;3.20;;;0.68;;
60588;SDS011;46421;48.610;9.334;2024-03-29T01:50:50;1.02;;;0.43;;
60588;SDS011;46421;48.610;9.334;2024-03-29T01:53:16;0.50;;;0.17;;
60588;SDS011;46421;48.610;9.334;2024-03-29T01:55:43;1.25;;;0.40;;
60588;SDS011;46421;48.610;9.334;2024-03-29T01:58:09;0.17;;;0.17;;
60588;SDS011;46421;48.610;9.334;2024-03-29T02:00:36;0.40;;;0.40;;
60588;SDS011;46421;48.610;9.334;2024-03-29T02:03:02;1.35;;;0.50;;
60588;SDS011;46421;48.610;9.334;2024-03-29T02:05:29;2.58;;;0.70;;
60588;SDS011;46421;48.610;9.334;2024-03-29T02:07:55;1.27;;;0.60;;
60588;SDS011;46421;48.610;9.334;2024-03-29T02:10:21;2.45;;;0.50;;
60588;SDS011;46421;48.610;9.334;2024-03-29T02:12:47;1.77;;;0.68;;
60588;SDS011;46421;48.610;9.334;2024-03-29T02:15:15;1.98;;;0.80;;
60588;SDS011;46421;48.610;9.334;2024-03-29T02:17:41;1.20;;;0.40;;
60588;SDS011;46421;48.610;9.334;2024-03-29T02:20:07;2.05;;;0.65;;
60588;SDS011;46421;48.610;9.334;2024-03-29T02:22:33;1.45;;;0.43;;
60588;SDS011;46421;48.610;9.334;2024-03-29T02:25:02;0.73;;;0.30;;
60588;SDS011;46421;48.610;9.334;2024-03-29T02:27:27;1.80;;;0.60;;
60588;SDS011;46421;48.610;9.334;2024-03-29T02:29:53;0.20;;;0.13;;
60588;SDS011;46421;48.610;9.334;2024-03-29T02:32:18;0.43;;;0.20;;
60588;SDS011;46421;48.610;9.334;2024-03-29T02:34:44;0.80;;;0.33;;
60588;SDS011;46421;48.610;9.334;2024-03-29T02:37:09;0.98;;;0.28;;
60588;SDS011;46421;48.610;9.334;2024-03-29T02:39:34;0.85;;;0.28;;
60588;SDS011;46421;48.610;9.334;2024-03-29T02:42:00;2.60;;;0.30;;
60588;SDS011;46421;48.610;9.334;2024-03-29T02:44:25;0.43;;;0.20;;
60588;SDS011;46421;48.610;9.334;2024-03-29T02:46:51;0.85;;;0.30;;
60588;SDS011;46421;48.610;9.334;2024-03-29T02:49:16;0.65;;;0.20;;
60588;SDS011;46421;48.610;9.334;2024-03-29T02:51:41;0.77;;;0.30;;
60588;SDS011;46421;48.610;9.334;2024-03-29T02:54:07;1.07;;;0.30;;
60588;SDS011;46421;48.610;9.334;2024-03-29T02:56:32;1.87;;;0.40;;
60588;SDS011;46421;48.610;9.334;2024-03-29T02:58:58;0.20;;;0.20;;
60588;SDS011;46421;48.610;9.334;2024-03-29T03:01:23;0.10;;;0.10;;
60588;SDS011;46421;48.610;9.334;2024-03-29T03:03:48;0.43;;;0.20;;
60588;SDS011;46421;48.610;9.334;2024-03-29T03:06:14;0.50;;;0.20;;
60588;SDS011;46421;48.610;9.334;2024-03-29T03:08:39;0.20;;;0.20;;
60588;SDS011;46421;48.610;9.334;2024-03-29T03:11:23;0.30;;;0.20;;
60588;SDS011;46421;48.610;9.334;2024-03-29T03:13:48;0.20;;;0.10;;
60588;SDS011;46421;48.610;9.334;2024-03-29T03:16:14;0.77;;;0.30;;
60588;SDS011;46421;48.610;9.334;2024-03-29T03:18:39;0.32;;;0.17;;
60588;SDS011;46421;48.610;9.334;2024-03-29T03:21:05;0.40;;;0.20;;
60588;SDS011;46421;48.610;9.334;2024-03-29T03:23:30;1.00;;;0.30;;
60588;SDS011;46421;48.610;9.334;2024-03-29T03:25:56;0.60;;;0.30;;
60588;SDS011;46421;48.610;9.334;2024-03-29T03:28:25;0.88;;;0.40;;
60588;SDS011;46421;48.610;9.334;2024-03-29T03:30:51;1.23;;;0.40;;
60588;SDS011;46421;48.610;9.334;2024-03-29T03:33:18;0.10;;;0.10;;
60588;SDS011;46421;48.610;9.334;2024-03-29T03:35:43;0.55;;;0.20;;
60588;SDS011;46421;48.610;9.334;2024-03-29T03:38:09;0.30;;;0.10;;
60588;SDS011;46421;48.610;9.334;2024-03-29T03:40:34;0.20;;;0.20;;
60588;SDS011;46421;48.610;9.334;2024-03-29T03:43:01;0.38;;;0.20;;
60588;SDS011;46421;48.610;9.334;2024-03-29T03:45:27;0.88;;;0.20;;
60588;SDS011;46421;48.610;9.334;2024-03-29T03:47:52;0.20;;;0.20;;
60588;SDS011;46421;48.610;9.334;2024-03-29T03:50:17;0.63;;;0.30;;
60588;SDS011;46421;48.610;9.334;2024-03-29T03:52:43;1.25;;;0.43;;
60588;SDS011;46421;48.610;9.334;2024-03-29T03:55:08;0.87;;;0.17;;
60588;SDS011;46421;48.610;9.334;2024-03-29T03:57:33;1.60;;;0.50;;
60588;SDS011;46421;48.610;9.334;2024-03-29T03:59:59;0.57;;;0.35;;
60588;SDS011;46421;48.610;9.334;2024-03-29T04:02:25;1.27;;;0.47;;
60588;SDS011;46421;48.610;9.334;2024-03-29T04:04:50;1.67;;;0.43;;
60588;SDS011;46421;48.610;9.334;2024-03-29T04:07:16;1.83;;;0.60;;
60588;SDS011;46421;48.610;9.334;2024-03-29T04:09:41;1.30;;;0.40;;
60588;SDS011;46421;48.610;9.334;2024-03-29T04:12:06;1.20;;;0.35;;
60588;SDS011;46421;48.610;9.334;2024-03-29T04:14:32;0.93;;;0.40;;
60588;SDS011;46421;48.610;9.334;2024-03-29T04:16:57;0.83;;;0.40;;
60588;SDS011;46421;48.610;9.334;2024-03-29T04:19:22;0.98;;;0.40;;
60588;SDS011;46421;48.610;9.334;2024-03-29T04:21:48;1.57;;;0.50;;
60588;SDS011;46421;48.610;9.334;2024-03-29T04:24:13;0.82;;;0.40;;
60588;SDS011;46421;48.610;9.334;2024-03-29T04:26:39;1.70;;;0.50;;
60588;SDS011;46421;48.610;9.334;2024-03-29T04:29:04;1.27;;;0.40;;
60588;SDS011;46421;48.610;9.334;2024-03-29T04:31:30;3.05;;;0.70;;
60588;SDS011;46421;48.610;9.334;2024-03-29T04:33:55;2.40;;;0.60;;
60588;SDS011;46421;48.610;9.334;2024-03-29T04:36:20;2.95;;;0.80;;
60588;SDS011;46421;48.610;9.334;2024-03-29T04:38:46;2.75;;;0.70;;
60588;SDS011;46421;48.610;9.334;2024-03-29T04:41:12;3.58;;;0.80;;
60588;SDS011;46421;48.610;9.334;2024-03-29T04:43:37;3.35;;;0.90;;
60588;SDS011;46421;48.610;9.334;2024-03-29T04:46:03;2.35;;;0.77;;
60588;SDS011;46421;48.610;9.334;2024-03-29T04:48:29;2.80;;;0.90;;
60588;SDS011;46421;48.610;9.334;2024-03-29T04:50:55;2.10;;;0.73;;
60588;SDS011;46421;48.610;9.334;2024-03-29T04:53:22;2.67;;;0.57;;
60588;SDS011;46421;48.610;9.334;2024-03-29T04:55:52;2.20;;;0.90;;
60588;SDS011;46421;48.610;9.334;2024-03-29T04:58:18;1.38;;;0.70;;
60588;SDS011;46421;48.610;9.334;2024-03-29T05:00:43;1.73;;;0.57;;
60588;SDS011;46421;48.610;9.334;2024-03-29T05:03:09;2.03;;;0.80;;
60588;SDS011;46421;48.610;9.334;2024-03-29T05:05:34;2.88;;;0.90;;
60588;SDS011;46421;48.610;9.334;2024-03-29T05:07:59;1.90;;;0.70;;
60588;SDS011;46421;48.610;9.334;2024-03-29T05:10:25;1.20;;;0.60;;
60588;SDS011;46421;48.610;9.334;2024-03-29T05:12:50;3.00;;;0.70;;
60588;SDS011;46421;48.610;9.334;2024-03-29T05:15:16;1.83;;;0.52;;
60588;SDS011;46421;48.610;9.334;2024-03-29T05:17:41;2.17;;;0.70;;
60588;SDS011;46421;48.610;9.334;2024-03-29T05:20:07;1.40;;;0.60;;
60588;SDS011;46421;48.610;9.334;2024-03-29T05:22:32;2.40;;;0.75;;
60588;SDS011;46421;48.610;9.334;2024-03-29T05:24:58;0.93;;;0.45;;
60588;SDS011;46421;48.610;9.334;2024-03-29T05:27:23;1.95;;;0.70;;
60588;SDS011;46421;48.610;9.334;2024-03-29T05:29:49;2.00;;;0.80;;
60588;SDS011;46421;48.610;9.334;2024-03-29T05:32:14;1.33;;;0.60;;
60588;SDS011;46421;48.610;9.334;2024-03-29T05:34:40;2.27;;;0.80;;
60588;SDS011;46421;48.610;9.334;2024-03-29T05:37:06;1.95;;;0.73;;
60588;SDS011;46421;48.610;9.334;2024-03-29T05:39:32;1.92;;;0.65;;
60588;SDS011;46421;48.610;9.334;2024-03-29T05:41:58;1.73;;;0.50;;
60588;SDS011;46421;48.610;9.334;2024-03-29T05:44:23;1.37;;;0.50;;
60588;SDS011;46421;48.610;9.334;2024-03-29T05:46:49;0.85;;;0.47;;
60588;SDS011;46421;48.610;9.334;2024-03-29T05:49:14;1.20;;;0.40;;
60588;SDS011;46421;48.610;9.334;2024-03-29T05:51:40;0.85;;;0.40;;
60588;SDS011;46421;48.610;9.334;2024-03-29T05:54:06;1.42;;;0.50;;
60588;SDS011;46421;48.610;9.334;2024-03-29T05:56:31;0.35;;;0.32;;
60588;SDS011;46421;48.610;9.334;2024-03-29T05:58:57;1.90;;;0.43;;
60588;SDS011;46421;48.610;9.334;2024-03-29T06:01:22;1.23;;;0.40;;
60588;SDS011;46421;48.610;9.334;2024-03-29T06:03:48;1.02;;;0.45;;
60588;SDS011;46421;48.610;9.334;2024-03-29T06:06:16;1.50;;;0.35;;
60588;SDS011;46421;48.610;9.334;2024-03-29T06:08:43;1.92;;;0.40;;
60588;SDS011;46421;48.610;9.334;2024-03-29T06:11:09;1.25;;;0.28;;
60588;SDS011;46421;48.610;9.334;2024-03-29T06:13:34;2.80;;;0.63;;
60588;SDS011;46421;48.610;9.334;2024-03-29T06:16:17;0.85;;;0.40;;
60588;SDS011;46421;48.610;9.334;2024-03-29T06:19:01;1.75;;;0.38;;
60588;SDS011;46421;48.610;9.334;2024-03-29T06:21:27;0.63;;;0.40;;
60588;SDS011;46421;48.610;9.334;2024-03-29T06:23:52;1.55;;;0.50;;
60588;SDS011;46421;48.610;9.334;2024-03-29T06:26:18;1.10;;;0.40;;
60588;SDS011;46421;48.610;9.334;2024-03-29T06:28:43;0.85;;;0.20;;
60588;SDS011;46421;48.610;9.334;2024-03-29T06:31:08;1.75;;;0.50;;
60588;SDS011;46421;48.610;9.334;2024-03-29T06:33:34;1.45;;;0.68;;
60588;SDS011;46421;48.610;9.334;2024-03-29T06:35:59;1.05;;;0.47;;
60588;SDS011;46421;48.610;9.334;2024-03-29T06:38:24;2.03;;;0.70;;
60588;SDS011;46421;48.610;9.334;2024-03-29T06:40:50;3.05;;;0.80;;
60588;SDS011;46421;48.610;9.334;2024-03-29T06:43:15;2.20;;;0.50;;
60588;SDS011;46421;48.610;9.334;2024-03-29T06:45:41;1.10;;;0.50;;
60588;SDS011;46421;48.610;9.334;2024-03-29T06:48:09;1.83;;;0.60;;
60588;SDS011;46421;48.610;9.334;2024-03-29T06:50:35;1.55;;;0.57;;
60588;SDS011;46421;48.610;9.334;2024-03-29T06:53:00;1.73;;;0.60;;
60588;SDS011;46421;48.610;9.334;2024-03-29T06:55:26;1.27;;;0.57;;
60588;SDS011;46421;48.610;9.334;2024-03-29T06:57:51;2.78;;;0.75;;
60588;SDS011;46421;48.610;9.334;2024-03-29T07:00:17;1.52;;;0.80;;
60588;SDS011;46421;48.610;9.334;2024-03-29T07:02:42;2.53;;;0.70;;
60588;SDS011;46421;48.610;9.334;2024-03-29T07:05:08;2.42;;;0.93;;
60588;SDS011;46421;48.610;9.334;2024-03-29T07:07:36;2.25;;;0.80;;
60588;SDS011;46421;48.610;9.334;2024-03-29T07:10:01;1.70;;;0.70;;
60588;SDS011;46421;48.610;9.334;2024-03-29T07:12:27;3.53;;;1.15;;
60588;SDS011;46421;48.610;9.334;2024-03-29T07:14:52;2.30;;;1.02;;
60588;SDS011;46421;48.610;9.334;2024-03-29T07:17:18;2.03;;;0.80;;
60588;SDS011;46421;48.610;9.334;2024-03-29T07:19:43;2.78;;;1.08;;
60588;SDS011;46421;48.610;9.334;2024-03-29T07:22:08;2.88;;;0.80;;
60588;SDS011;46421;48.610;9.334;2024-03-29T07:24:34;2.45;;;0.85;;
60588;SDS011;46421;48.610;9.334;2024-03-29T07:26:59;2.37;;;0.90;;
60588;SDS011;46421;48.610;9.334;2024-03-29T07:29:24;3.38;;;1.40;;
60588;SDS011;46421;48.610;9.334;2024-03-29T07:31:50;1.67;;;0.88;;
60588;SDS011;46421;48.610;9.334;2024-03-29T07:34:15;3.37;;;1.00;;
60588;SDS011;46421;48.610;9.334;2024-03-29T07:36:40;2.63;;;0.93;;
60588;SDS011;46421;48.610;9.334;2024-03-29T07:39:06;3.08;;;1.00;;
60588;SDS011;46421;48.610;9.334;2024-03-29T07:41:31;1.75;;;0.80;;
60588;SDS011;46421;48.610;9.334;2024-03-29T07:43:57;2.97;;;0.80;;
60588;SDS011;46421;48.610;9.334;2024-03-29T07:46:28;1.70;;;0.65;;
60588;SDS011;46421;48.610;9.334;2024-03-29T07:48:57;2.55;;;0.65;;
60588;SDS011;46421;48.610;9.334;2024-03-29T07:51:22;3.65;;;0.80;;
60588;SDS011;46421;48.610;9.334;2024-03-29T07:53:47;1.45;;;0.80;;
60588;SDS011;46421;48.610;9.334;2024-03-29T07:56:13;2.25;;;0.60;;
60588;SDS011;46421;48.610;9.334;2024-03-29T07:58:38;1.50;;;0.60;;
60588;SDS011;46421;48.610;9.334;2024-03-29T08:01:04;3.57;;;0.97;;
60588;SDS011;46421;48.610;9.334;2024-03-29T08:03:29;2.00;;;0.60;;
60588;SDS011;46421;48.610;9.334;2024-03-29T08:06:00;2.25;;;0.88;;
60588;SDS011;46421;48.610;9.334;2024-03-29T08:08:30;2.42;;;1.00;;
60588;SDS011;46421;48.610;9.334;2024-03-29T08:10:55;2.92;;;1.10;;
60588;SDS011;46421;48.610;9.334;2024-03-29T08:13:21;4.55;;;1.38;;
60588;SDS011;46421;48.610;9.334;2024-03-29T08:15:47;3.72;;;1.45;;
60588;SDS011;46421;48.610;9.334;2024-03-29T08:18:13;3.58;;;0.98;;
60588;SDS011;46421;48.610;9.334;2024-03-29T08:20:38;2.58;;;0.93;;
60588;SDS011;46421;48.610;9.334;2024-03-29T08:23:04;2.95;;;1.20;;
60588;SDS011;46421;48.610;9.334;2024-03-29T08:25:29;2.88;;;1.27;;
60588;SDS011;46421;48.610;9.334;2024-03-29T08:27:55;3.03;;;1.00;;
60588;SDS011;46421;48.610;9.334;2024-03-29T08:30:26;3.60;;;1.30;;
60588;SDS011;46421;48.610;9.334;2024-03-29T08:32:53;3.53;;;1.20;;
60588;SDS011;46421;48.610;9.334;2024-03-29T08:35:19;3.20;;;1.10;;
60588;SDS011;46421;48.610;9.334;2024-03-29T08:37:45;3.13;;;1.15;;
60588;SDS011;46421;48.610;9.334;2024-03-29T08:40:10;2.58;;;1.00;;
60588;SDS011;46421;48.610;9.334;2024-03-29T08:42:36;3.63;;;1.00;;
60588;SDS011;46421;48.610;9.334;2024-03-29T08:45:03;4.00;;;1.20;;
60588;SDS011;46421;48.610;9.334;2024-03-29T08:47:31;4.63;;;1.70;;
60588;SDS011;46421;48.610;9.334;2024-03-29T08:49:56;4.43;;;1.77;;
60588;SDS011;46421;48.610;9.334;2024-03-29T08:52:22;6.43;;;2.00;;
60588;SDS011;46421;48.610;9.334;2024-03-29T08:54:47;3.67;;;1.50;;
60588;SDS011;46421;48.610;9.334;2024-03-29T08:57:13;2.78;;;1.13;;
60588;SDS011;46421;48.610;9.334;2024-03-29T08:59:38;3.50;;;1.27;;
60588;SDS011;46421;48.610;9.334;2024-03-29T09:02:04;4.07;;;1.30;;
60588;SDS011;46421;48.610;9.334;2024-03-29T09:04:31;3.22;;;1.30;;
60588;SDS011;46421;48.610;9.334;2024-03-29T09:06:59;2.63;;;1.05;;
60588;SDS011;46421;48.610;9.334;2024-03-29T09:09:24;3.35;;;1.10;;
60588;SDS011;46421;48.610;9.334;2024-03-29T09:11:50;3.22;;;1.25;;
60588;SDS011;46421;48.610;9.334;2024-03-29T09:14:15;4.75;;;1.35;;
60588;SDS011;46421;48.610;9.334;2024-03-29T09:16:41;2.67;;;1.00;;
60588;SDS011;46421;48.610;9.334;2024-03-29T09:19:06;3.65;;;1.13;;
60588;SDS011;46421;48.610;9.334;2024-03-29T09:21:32;2.97;;;1.05;;
60588;SDS011;46421;48.610;9.334;2024-03-29T09:23:57;4.13;;;1.65;;
60588;SDS011;46421;48.610;9.334;2024-03-29T09:26:23;3.83;;;1.48;;
60588;SDS011;46421;48.610;9.334;2024-03-29T09:28:48;3.90;;;1.48;;
60588;SDS011;46421;48.610;9.334;2024-03-29T09:31:13;3.30;;;1.35;;
60588;SDS011;46421;48.610;9.334;2024-03-29T09:33:39;3.97;;;1.30;;
60588;SDS011;46421;48.610;9.334;2024-03-29T09:36:04;4.80;;;1.35;;
60588;SDS011;46421;48.610;9.334;2024-03-29T09:38:30;2.67;;;1.05;;
60588;SDS011;46421;48.610;9.334;2024-03-29T09:41:13;3.40;;;1.10;;
60588;SDS011;46421;48.610;9.334;2024-03-29T09:43:40;3.60;;;1.33;;
60588;SDS011;46421;48.610;9.334;2024-03-29T09:46:08;4.80;;;1.42;;
60588;SDS011;46421;48.610;9.334;2024-03-29T09:48:33;4.38;;;1.27;;
60588;SDS011;46421;48.610;9.334;2024-03-29T09:51:08;4.88;;;1.60;;
60588;SDS011;46421;48.610;9.334;2024-03-29T09:53:35;6.43;;;1.60;;
60588;SDS011;46421;48.610;9.334;2024-03-29T09:56:04;4.78;;;1.70;;
60588;SDS011;46421;48.610;9.334;2024-03-29T09:58:31;3.45;;;1.30;;
60588;SDS011;46421;48.610;9.334;2024-03-29T10:00:57;4.63;;;1.40;;
60588;SDS011;46421;48.610;9.334;2024-03-29T10:03:25;3.38;;;1.10;;
60588;SDS011;46421;48.610;9.334;2024-03-29T10:05:56;3.15;;;1.30;;
60588;SDS011;46421;48.610;9.334;2024-03-29T10:08:22;4.55;;;1.17;;
60588;SDS011;46421;48.610;9.334;2024-03-29T10:10:49;4.07;;;1.40;;
60588;SDS011;46421;48.610;9.334;2024-03-29T10:13:16;4.80;;;1.35;;
60588;SDS011;46421;48.610;9.334;2024-03-29T10:15:42;3.40;;;1.20;;
60588;SDS011;46421;48.610;9.334;2024-03-29T10:18:12;3.03;;;1.10;;
60588;SDS011;46421;48.610;9.334;2024-03-29T10:20:37;2.20;;;0.80;;
60588;SDS011;46421;48.610;9.334;2024-03-29T10:23:03;2.92;;;0.93;;
60588;SDS011;46421;48.610;9.334;2024-03-29T10:25:32;2.42;;;1.00;;
60588;SDS011;46421;48.610;9.334;2024-03-29T10:27:58;2.65;;;0.73;;
60588;SDS011;46421;48.610;9.334;2024-03-29T10:30:24;1.98;;;1.00;;
60588;SDS011;46421;48.610;9.334;2024-03-29T10:32:50;4.82;;;1.48;;
60588;SDS011;46421;48.610;9.334;2024-03-29T10:35:16;1.95;;;0.90;;
60588;SDS011;46421;48.610;9.334;2024-03-29T10:37:42;2.00;;;0.68;;
60588;SDS011;46421;48.610;9.334;2024-03-29T10:40:08;2.20;;;0.77;;
60588;SDS011;46421;48.610;9.334;2024-03-29T10:42:37;0.70;;;0.60;;
60588;SDS011;46421;48.610;9.334;2024-03-29T10:45:03;2.60;;;0.77;;
60588;SDS011;46421;48.610;9.334;2024-03-29T10:47:30;1.45;;;0.60;;
60588;SDS011;46421;48.610;9.334;2024-03-29T10:49:57;4.82;;;1.00;;
60588;SDS011;46421;48.610;9.334;2024-03-29T10:52:24;2.00;;;0.70;;
60588;SDS011;46421;48.610;9.334;2024-03-29T10:57:27;2.53;;;0.80;;
60588;SDS011;46421;48.610;9.334;2024-03-29T11:02:46;1.58;;;0.77;;
60588;SDS011;46421;48.610;9.334;2024-03-29T11:05:15;3.80;;;0.90;;
60588;SDS011;46421;48.610;9.334;2024-03-29T11:07:41;1.13;;;0.40;;
60588;SDS011;46421;48.610;9.334;2024-03-29T11:10:51;1.88;;;0.63;;
60588;SDS011;46421;48.610;9.334;2024-03-29T11:13:07;2.47;;;0.75;;
60588;SDS011;46421;48.610;9.334;2024-03-29T11:15:38;1.25;;;0.60;;
60588;SDS011;46421;48.610;9.334;2024-03-29T11:18:05;1.65;;;0.60;;
60588;SDS011;46421;48.610;9.334;2024-03-29T11:20:32;3.33;;;0.77;;
60588;SDS011;46421;48.610;9.334;2024-03-29T11:23:03;2.95;;;0.77;;
60588;SDS011;46421;48.610;9.334;2024-03-29T11:26:05;1.45;;;0.60;;
60588;SDS011;46421;48.610;9.334;2024-03-29T11:28:25;1.20;;;0.70;;
60588;SDS011;46421;48.610;9.334;2024-03-29T11:30:56;2.85;;;0.90;;
60588;SDS011;46421;48.610;9.334;2024-03-29T11:33:27;2.08;;;0.70;;
60588;SDS011;46421;48.610;9.334;2024-03-29T11:38:44;1.98;;;0.68;;
60588;SDS011;46421;48.610;9.334;2024-03-29T11:41:11;3.92;;;1.00;;
60588;SDS011;46421;48.610;9.334;2024-03-29T11:43:37;1.75;;;0.70;;
60588;SDS011;46421;48.610;9.334;2024-03-29T11:46:05;2.03;;;0.98;;
60588;SDS011;46421;48.610;9.334;2024-03-29T11:48:32;3.97;;;0.93;;
60588;SDS011;46421;48.610;9.334;2024-03-29T11:50:58;3.33;;;0.88;;
60588;SDS011;46421;48.610;9.334;2024-03-29T11:53:24;1.40;;;0.60;;
60588;SDS011;46421;48.610;9.334;2024-03-29T11:55:49;2.08;;;0.70;;
60588;SDS011;46421;48.610;9.334;2024-03-29T11:58:24;1.23;;;0.55;;
60588;SDS011;46421;48.610;9.334;2024-03-29T12:00:51;2.53;;;0.75;;
60588;SDS011;46421;48.610;9.334;2024-03-29T12:03:17;2.03;;;0.63;;
60588;SDS011;46421;48.610;9.334;2024-03-29T12:05:45;1.63;;;0.70;;
60588;SDS011;46421;48.610;9.334;2024-03-29T12:08:10;2.75;;;0.52;;
60588;SDS011;46421;48.610;9.334;2024-03-29T12:10:36;2.25;;;0.68;;
60588;SDS011;46421;48.610;9.334;2024-03-29T12:13:02;2.72;;;0.73;;
60588;SDS011;46421;48.610;9.334;2024-03-29T12:15:29;2.42;;;0.70;;
60588;SDS011;46421;48.610;9.334;2024-03-29T12:17:56;1.85;;;0.70;;
60588;SDS011;46421;48.610;9.334;2024-03-29T12:20:22;2.17;;;0.98;;
60588;SDS011;46421;48.610;9.334;2024-03-29T12:22:48;2.55;;;0.88;;
60588;SDS011;46421;48.610;9.334;2024-03-29T12:25:13;1.92;;;0.77;;
60588;SDS011;46421;48.610;9.334;2024-03-29T12:27:39;1.35;;;0.70;;
60588;SDS011;46421;48.610;9.334;2024-03-29T12:30:05;3.75;;;1.33;;
60588;SDS011;46421;48.610;9.334;2024-03-29T12:35:08;3.10;;;1.20;;
60588;SDS011;46421;48.610;9.334;2024-03-29T12:37:34;6.03;;;2.88;;
60588;SDS011;46421;48.610;9.334;2024-03-29T12:39:59;4.18;;;1.40;;
60588;SDS011;46421;48.610;9.334;2024-03-29T12:42:25;2.50;;;1.08;;
60588;SDS011;46421;48.610;9.334;2024-03-29T12:44:50;2.88;;;1.00;;
60588;SDS011;46421;48.610;9.334;2024-03-29T12:47:17;3.03;;;1.10;;
60588;SDS011;46421;48.610;9.334;2024-03-29T12:49:42;4.60;;;1.20;;
60588;SDS011;46421;48.610;9.334;2024-03-29T12:52:07;3.63;;;1.30;;
60588;SDS011;46421;48.610;9.334;2024-03-29T12:54:34;3.25;;;0.82;;
60588;SDS011;46421;48.610;9.334;2024-03-29T12:57:00;3.55;;;1.05;;
60588;SDS011;46421;48.610;9.334;2024-03-29T12:59:33;2.17;;;0.80;;
60588;SDS011;46421;48.610;9.334;2024-03-29T13:01:59;1.38;;;0.70;;
60588;SDS011;46421;48.610;9.334;2024-03-29T13:04:24;2.45;;;0.98;;
60588;SDS011;46421;48.610;9.334;2024-03-29T13:06:50;2.10;;;0.80;;
60588;SDS011;46421;48.610;9.334;2024-03-29T13:09:15;2.90;;;0.77;;
60588;SDS011;46421;48.610;9.334;2024-03-29T13:11:40;2.30;;;0.90;;
60588;SDS011;46421;48.610;9.334;2024-03-29T13:14:06;2.22;;;0.80;;
60588;SDS011;46421;48.610;9.334;2024-03-29T13:16:32;3.30;;;0.98;;
60588;SDS011;46421;48.610;9.334;2024-03-29T13:18:57;1.58;;;0.70;;
60588;SDS011;46421;48.610;9.334;2024-03-29T13:21:22;1.92;;;1.08;;
60588;SDS011;46421;48.610;9.334;2024-03-29T13:23:48;1.85;;;0.80;;
60588;SDS011;46421;48.610;9.334;2024-03-29T13:26:13;2.40;;;0.80;;
60588;SDS011;46421;48.610;9.334;2024-03-29T13:28:38;2.17;;;0.80;;
60588;SDS011;46421;48.610;9.334;2024-03-29T13:31:04;2.78;;;0.90;;
60588;SDS011;46421;48.610;9.334;2024-03-29T13:33:29;2.05;;;0.73;;
60588;SDS011;46421;48.610;9.334;2024-03-29T13:35:57;1.70;;;0.73;;
60588;SDS011;46421;48.610;9.334;2024-03-29T13:38:22;1.23;;;0.57;;
60588;SDS011;46421;48.610;9.334;2024-03-29T13:40:51;3.05;;;0.90;;
60588;SDS011;46421;48.610;9.334;2024-03-29T13:43:16;2.25;;;0.85;;
60588;SDS011;46421;48.610;9.334;2024-03-29T13:45:42;2.38;;;0.80;;
60588;SDS011;46421;48.610;9.334;2024-03-29T13:48:07;2.00;;;0.90;;
60588;SDS011;46421;48.610;9.334;2024-03-29T13:50:33;2.03;;;0.93;;
60588;SDS011;46421;48.610;9.334;2024-03-29T13:52:58;1.83;;;0.82;;
60588;SDS011;46421;48.610;9.334;2024-03-29T13:55:24;1.85;;;0.82;;
60588;SDS011;46421;48.610;9.334;2024-03-29T13:57:51;3.10;;;1.00;;
60588;SDS011;46421;48.610;9.334;2024-03-29T14:00:18;1.30;;;0.60;;
60588;SDS011;46421;48.610;9.334;2024-03-29T14:02:44;1.75;;;0.77;;
60588;SDS011;46421;48.610;9.334;2024-03-29T14:05:10;1.55;;;0.70;;
60588;SDS011;46421;48.610;9.334;2024-03-29T14:07:37;2.30;;;0.80;;
60588;SDS011;46421;48.610;9.334;2024-03-29T14:10:02;2.78;;;0.70;;
60588;SDS011;46421;48.610;9.334;2024-03-29T14:12:29;1.27;;;0.75;;
60588;SDS011;46421;48.610;9.334;2024-03-29T14:14:54;1.25;;;0.63;;
60588;SDS011;46421;48.610;9.334;2024-03-29T14:19:46;2.47;;;0.80;;
60588;SDS011;46421;48.610;9.334;2024-03-29T14:22:12;2.05;;;0.70;;
60588;SDS011;46421;48.610;9.334;2024-03-29T14:24:40;1.90;;;0.60;;
60588;SDS011;46421;48.610;9.334;2024-03-29T14:27:06;1.10;;;0.60;;
60588;SDS011;46421;48.610;9.334;2024-03-29T14:29:34;2.13;;;0.70;;
60588;SDS011;46421;48.610;9.334;2024-03-29T14:32:00;2.22;;;0.70;;
60588;SDS011;46421;48.610;9.334;2024-03-29T14:34:28;2.83;;;0.90;;
60588;SDS011;46421;48.610;9.334;2024-03-29T14:36:57;1.77;;;0.80;;
60588;SDS011;46421;48.610;9.334;2024-03-29T14:39:23;1.98;;;0.73;;
60588;SDS011;46421;48.610;9.334;2024-03-29T14:41:48;3.83;;;0.90;;
60588;SDS011;46421;48.610;9.334;2024-03-29T14:44:15;1.75;;;0.70;;
60588;SDS011;46421;48.610;9.334;2024-03-29T14:46:42;2.60;;;0.85;;
60588;SDS011;46421;48.610;9.334;2024-03-29T14:49:07;2.70;;;0.75;;
60588;SDS011;46421;48.610;9.334;2024-03-29T14:51:36;2.15;;;0.90;;
60588;SDS011;46421;48.610;9.334;2024-03-29T14:54:01;2.50;;;0.70;;
60588;SDS011;46421;48.610;9.334;2024-03-29T14:56:28;2.03;;;0.60;;